createdAt,value
2022-07-26T00:01:09.292Z,19.43
2022-07-26T00:04:03.137Z,19.42
2022-07-26T00:06:50.393Z,19.48
2022-07-26T00:09:48.220Z,19.51
2022-07-26T00:12:35.910Z,19.49
2022-07-26T00:15:29.118Z,19.49
2022-07-26T00:18:17.133Z,19.55
2022-07-26T00:21:11.661Z,19.63
2022-07-26T00:24:05.257Z,19.64
2022-07-26T00:26:59.102Z,19.74
2022-07-26T00:29:52.275Z,19.72
2022-07-26T00:32:39.373Z,19.75
2022-07-26T00:35:33.206Z,19.78
2022-07-26T00:38:20.346Z,19.68
2022-07-26T00:41:15.101Z,19.77
2022-07-26T00:44:15.112Z,19.67
2022-07-26T00:47:09.109Z,19.77
2022-07-26T00:50:02.110Z,19.75
2022-07-26T00:52:50.429Z,19.72
2022-07-26T00:55:44.092Z,19.71
2022-07-26T00:58:37.106Z,19.82
2022-07-26T01:01:24.334Z,19.74
2022-07-26T01:04:18.126Z,19.76
2022-07-26T01:07:14.650Z,19.65
2022-07-26T01:10:11.147Z,19.59
2022-07-26T01:12:58.145Z,19.47
2022-07-26T01:15:52.147Z,19.40
2022-07-26T01:18:39.149Z,19.22
2022-07-26T01:21:39.295Z,19.24
2022-07-26T01:24:26.438Z,19.27
2022-07-26T01:27:20.125Z,19.17
2022-07-26T01:30:10.771Z,19.24
2022-07-26T01:33:06.384Z,19.18
2022-07-26T01:35:54.444Z,19.12
2022-07-26T01:38:49.109Z,19.12
2022-07-26T01:41:49.119Z,18.92
2022-07-26T01:44:49.107Z,18.82
2022-07-26T01:47:36.207Z,18.74
2022-07-26T01:50:30.127Z,18.73
2022-07-26T01:53:17.153Z,18.72
2022-07-26T01:56:11.129Z,18.73
2022-07-26T01:58:58.250Z,18.81
2022-07-26T02:01:53.177Z,18.76
2022-07-26T02:04:58.786Z,18.85
2022-07-26T02:07:53.096Z,18.81
2022-07-26T02:11:05.107Z,18.65
2022-07-26T02:13:59.084Z,18.74
2022-07-26T02:16:52.329Z,18.73
2022-07-26T02:19:46.093Z,18.70
2022-07-26T02:22:40.096Z,18.94
2022-07-26T02:25:27.656Z,18.90
2022-07-26T02:28:22.280Z,18.94
2022-07-26T02:31:09.340Z,18.92
2022-07-26T02:34:05.277Z,19.10
2022-07-26T02:36:59.168Z,19.26
2022-07-26T02:39:53.084Z,19.19
2022-07-26T02:43:00.111Z,19.11
2022-07-26T02:46:01.200Z,18.94
2022-07-26T02:48:57.150Z,18.95
2022-07-26T02:51:44.457Z,19.17
2022-07-26T02:54:38.102Z,19.05
2022-07-26T02:57:25.092Z,19.00
2022-07-26T03:00:20.247Z,19.17
2022-07-26T03:03:07.338Z,18.91
2022-07-26T03:06:01.073Z,19.22
2022-07-26T03:08:55.121Z,19.31
2022-07-26T03:11:49.094Z,19.42
2022-07-26T03:14:42.103Z,19.44
2022-07-26T03:17:36.078Z,19.43
2022-07-26T03:20:23.246Z,19.35
2022-07-26T03:23:17.473Z,19.60
2022-07-26T03:26:04.666Z,19.73
2022-07-26T03:28:58.073Z,19.72
2022-07-26T03:31:52.083Z,19.80
2022-07-26T03:34:46.112Z,19.78
2022-07-26T03:37:44.856Z,19.78
2022-07-26T03:40:40.073Z,19.82
2022-07-26T03:43:40.100Z,19.84
2022-07-26T03:46:34.228Z,19.84
2022-07-26T03:49:28.291Z,20.03
2022-07-26T03:52:15.289Z,19.98
2022-07-26T03:55:29.087Z,19.95
2022-07-26T03:58:17.153Z,19.89
2022-07-26T04:01:11.112Z,19.97
2022-07-26T04:04:05.159Z,20.01
2022-07-26T04:07:03.848Z,19.95
2022-07-26T04:09:50.922Z,20.06
2022-07-26T04:12:44.237Z,19.88
2022-07-26T04:15:31.258Z,20.00
2022-07-26T04:18:25.449Z,19.97
2022-07-26T04:21:12.540Z,19.91
2022-07-26T04:24:06.350Z,19.87
2022-07-26T04:27:00.075Z,19.88
2022-07-26T04:29:47.046Z,19.91
2022-07-26T04:32:40.259Z,19.93
2022-07-26T04:35:27.326Z,19.99
2022-07-26T04:38:21.091Z,20.06
2022-07-26T04:41:15.084Z,20.12
2022-07-26T04:44:08.706Z,20.10
2022-07-26T04:47:02.061Z,20.11
2022-07-26T04:49:49.347Z,20.16
2022-07-26T04:52:43.061Z,20.13
2022-07-26T04:55:30.634Z,20.23
2022-07-26T04:58:24.076Z,20.22
2022-07-26T05:01:18.148Z,20.20
2022-07-26T05:04:05.333Z,20.21
2022-07-26T05:06:59.784Z,20.19
2022-07-26T05:09:53.072Z,20.24
2022-07-26T05:12:40.123Z,20.24
2022-07-26T05:15:35.354Z,20.21
2022-07-26T05:18:29.311Z,20.25
2022-07-26T05:21:25.055Z,20.20
2022-07-26T05:24:12.379Z,20.25
2022-07-26T05:27:06.071Z,20.23
2022-07-26T05:30:00.120Z,20.11
2022-07-26T05:32:54.049Z,20.17
2022-07-26T05:35:47.053Z,20.28
2022-07-26T05:38:34.278Z,20.40
2022-07-26T05:41:28.065Z,20.42
2022-07-26T05:44:21.249Z,20.27
2022-07-26T05:47:17.094Z,20.49
2022-07-26T05:50:05.573Z,20.44
2022-07-26T05:52:59.258Z,20.51
2022-07-26T05:55:46.273Z,20.49
2022-07-26T05:58:40.053Z,20.39
2022-07-26T06:01:34.066Z,20.47
2022-07-26T06:04:21.068Z,20.52
2022-07-26T06:07:15.174Z,20.48
2022-07-26T06:10:02.138Z,20.50
2022-07-26T06:12:55.220Z,20.49
2022-07-26T06:15:50.078Z,20.62
2022-07-26T06:18:44.061Z,20.77
2022-07-26T06:21:31.096Z,20.65
2022-07-26T06:24:24.034Z,20.58
2022-07-26T06:27:11.028Z,20.61
2022-07-26T06:30:04.075Z,20.63
2022-07-26T06:32:51.039Z,20.66
2022-07-26T06:35:49.049Z,20.70
2022-07-26T06:38:36.114Z,20.63
2022-07-26T06:41:30.241Z,20.67
2022-07-26T06:44:30.049Z,20.71
2022-07-26T06:47:17.142Z,20.67
2022-07-26T06:50:11.117Z,20.85
2022-07-26T06:53:05.088Z,20.77
2022-07-26T06:55:52.112Z,20.88
2022-07-26T06:58:46.275Z,20.74
2022-07-26T07:01:58.721Z,20.83
2022-07-26T07:04:47.157Z,20.59
2022-07-26T07:07:36.677Z,20.60
2022-07-26T07:10:30.046Z,20.60
2022-07-26T07:13:17.058Z,20.63
2022-07-26T07:16:10.105Z,20.63
2022-07-26T07:18:57.365Z,20.67
2022-07-26T07:21:51.091Z,20.81
2022-07-26T07:24:38.484Z,20.72
2022-07-26T07:27:34.060Z,20.83
2022-07-26T07:30:21.446Z,20.84
2022-07-26T07:33:22.233Z,20.68
2022-07-26T07:36:10.198Z,20.81
2022-07-26T07:39:06.612Z,20.77
2022-07-26T07:42:02.072Z,20.86
2022-07-26T07:45:02.034Z,20.95
2022-07-26T07:47:49.031Z,20.83
2022-07-26T07:50:42.061Z,20.89
2022-07-26T07:53:30.950Z,20.78
2022-07-26T07:56:25.314Z,20.89
2022-07-26T07:59:12.965Z,20.92
2022-07-26T08:02:07.080Z,21.02
2022-07-26T08:04:55.696Z,21.02
2022-07-26T08:07:53.046Z,20.92
2022-07-26T08:10:52.234Z,21.03
2022-07-26T08:13:41.537Z,21.02
2022-07-26T08:16:38.273Z,21.02
2022-07-26T08:19:41.762Z,21.09
2022-07-26T08:22:29.898Z,20.86
2022-07-26T08:25:23.039Z,20.95
2022-07-26T08:28:37.612Z,21.01
2022-07-26T08:31:24.112Z,20.92
2022-07-26T08:34:18.069Z,21.00
2022-07-26T08:37:17.252Z,21.14
2022-07-26T08:40:13.070Z,21.19
2022-07-26T08:43:13.036Z,21.33
2022-07-26T08:46:07.408Z,21.52
2022-07-26T08:49:03.261Z,21.41
2022-07-26T08:51:57.096Z,21.50
2022-07-26T08:54:46.409Z,21.58
2022-07-26T08:57:40.026Z,21.87
2022-07-26T09:00:29.787Z,21.98
2022-07-26T09:03:33.262Z,22.24
2022-07-26T09:06:31.422Z,22.32
2022-07-26T09:09:18.547Z,22.12
2022-07-26T09:12:27.109Z,22.23
2022-07-26T09:15:27.137Z,22.31
2022-07-26T09:18:28.798Z,22.35
2022-07-26T09:21:35.114Z,22.35
2022-07-26T09:24:43.052Z,22.32
2022-07-26T09:27:39.424Z,22.37
2022-07-26T09:30:35.417Z,22.34
2022-07-26T09:33:29.027Z,22.38
2022-07-26T09:36:17.366Z,22.29
2022-07-26T09:39:11.452Z,22.40
2022-07-26T09:42:25.065Z,22.55
2022-07-26T09:45:23.052Z,22.76
2022-07-26T09:48:19.042Z,22.83
2022-07-26T09:51:07.187Z,23.10
2022-07-26T09:54:01.003Z,23.03
2022-07-26T09:56:57.004Z,23.01
2022-07-26T09:59:44.488Z,22.84
2022-07-26T10:02:39.024Z,22.96
2022-07-26T10:05:33.034Z,22.83
2022-07-26T10:08:26.998Z,22.88
2022-07-26T10:11:21.085Z,22.85
2022-07-26T10:14:33.184Z,22.81
2022-07-26T10:17:41.091Z,22.74
2022-07-26T10:20:47.748Z,22.74
2022-07-26T10:26:45.070Z,22.67
2022-07-26T10:29:32.114Z,22.68
2022-07-26T10:32:27.001Z,22.63
2022-07-26T10:35:48.991Z,22.69
2022-07-26T10:38:44.425Z,22.66
2022-07-26T10:41:44.994Z,22.63
2022-07-26T10:44:52.016Z,22.71
2022-07-26T10:48:18.055Z,22.93
2022-07-26T10:51:29.687Z,22.96
2022-07-26T10:54:24.162Z,23.08
2022-07-26T10:57:11.136Z,23.16
2022-07-26T11:00:06.017Z,23.24
2022-07-26T11:02:56.804Z,23.30
2022-07-26T11:05:51.390Z,23.24
2022-07-26T11:08:38.460Z,23.25
2022-07-26T11:11:38.030Z,23.14
2022-07-26T11:14:33.233Z,23.06
2022-07-26T11:17:28.666Z,23.09
2022-07-26T11:20:31.977Z,22.91
2022-07-26T11:23:23.982Z,22.84
2022-07-26T11:26:26.005Z,22.63
2022-07-26T11:29:20.020Z,22.34
2022-07-26T11:32:25.172Z,22.08
2022-07-26T11:35:19.024Z,21.88
2022-07-26T11:38:15.001Z,21.80
2022-07-26T11:41:02.009Z,21.79
2022-07-26T11:44:01.921Z,21.79
2022-07-26T11:46:50.572Z,21.81
2022-07-26T11:50:00.566Z,21.68
2022-07-26T11:52:59.060Z,21.53
2022-07-26T11:55:47.634Z,21.18
2022-07-26T11:58:41.998Z,20.96
2022-07-26T12:01:29.317Z,20.98
2022-07-26T12:04:35.108Z,20.82
2022-07-26T12:07:29.014Z,20.84
2022-07-26T12:10:23.210Z,20.94
2022-07-26T12:13:15.936Z,20.99
2022-07-26T12:16:10.084Z,21.11
2022-07-26T12:19:03.999Z,21.42
2022-07-26T12:21:52.677Z,21.69
2022-07-26T12:24:48.211Z,21.83
2022-07-26T12:27:46.079Z,21.89
2022-07-26T12:30:43.017Z,21.98
2022-07-26T12:33:37.002Z,22.18
2022-07-26T12:36:32.125Z,22.34
2022-07-26T12:39:24.035Z,22.50
2022-07-26T12:42:33.130Z,22.66
2022-07-26T12:45:32.204Z,22.63
2022-07-26T12:48:25.990Z,22.65
2022-07-26T12:51:13.661Z,22.45
2022-07-26T12:54:07.067Z,22.47
2022-07-26T12:56:54.158Z,22.57
2022-07-26T12:59:49.300Z,22.42
2022-07-26T13:02:45.169Z,22.35
2022-07-26T13:05:32.360Z,22.07
2022-07-26T13:08:26.187Z,21.98
2022-07-26T13:11:13.499Z,21.72
2022-07-26T13:14:07.217Z,21.70
2022-07-26T13:16:54.502Z,21.69
2022-07-26T13:19:49.157Z,21.68
2022-07-26T13:22:42.984Z,21.77
2022-07-26T13:25:39.993Z,21.65
2022-07-26T13:28:27.683Z,21.62
2022-07-26T13:31:21.041Z,21.43
2022-07-26T13:34:15.059Z,21.28
2022-07-26T13:37:02.137Z,21.33
2022-07-26T13:40:02.233Z,21.35
2022-07-26T13:42:57.142Z,21.40
2022-07-26T13:45:51.338Z,21.38
2022-07-26T13:49:00.064Z,21.48
2022-07-26T13:51:57.422Z,21.52
2022-07-26T13:54:51.195Z,21.47
2022-07-26T13:57:55.663Z,21.58
2022-07-26T14:00:51.229Z,21.84
2022-07-26T14:03:38.910Z,22.04
2022-07-26T14:06:34.967Z,22.27
2022-07-26T14:09:29.092Z,22.45
2022-07-26T14:12:16.424Z,22.68
2022-07-26T14:15:15.143Z,23.01
2022-07-26T14:18:04.502Z,23.33
2022-07-26T14:20:58.056Z,23.80
2022-07-26T14:23:51.979Z,24.38
2022-07-26T14:26:38.994Z,24.85
2022-07-26T14:29:32.977Z,25.53
2022-07-26T14:32:21.986Z,26.02
2022-07-26T14:35:19.998Z,26.18
2022-07-26T14:38:17.022Z,26.74
2022-07-26T14:41:10.754Z,26.65
2022-07-26T14:44:04.007Z,27.07
2022-07-26T14:46:51.018Z,27.15
2022-07-26T14:49:45.091Z,27.42
2022-07-26T14:52:32.125Z,27.30
2022-07-26T14:55:25.955Z,27.19
2022-07-26T14:58:18.978Z,26.98
2022-07-26T15:01:06.070Z,26.79
2022-07-26T15:04:01.173Z,26.41
2022-07-26T15:06:55.181Z,26.55
2022-07-26T15:09:42.257Z,25.96
2022-07-26T15:12:35.970Z,25.98
2022-07-26T15:15:24.225Z,26.15
2022-07-26T15:18:18.001Z,26.43
2022-07-26T15:21:05.366Z,26.56
2022-07-26T15:23:58.995Z,26.31
2022-07-26T15:26:52.967Z,26.17
2022-07-26T15:29:46.984Z,25.90
2022-07-26T15:32:40.976Z,25.89
2022-07-26T15:35:35.953Z,25.83
2022-07-26T15:38:29.964Z,25.47
2022-07-26T15:41:23.956Z,25.31
2022-07-26T15:44:32.961Z,25.00
2022-07-26T15:47:53.302Z,25.23
2022-07-26T15:50:40.012Z,25.26
2022-07-26T15:53:29.154Z,25.26
2022-07-26T15:56:22.997Z,25.14
2022-07-26T15:59:10.028Z,25.17
2022-07-26T16:02:04.037Z,25.17
2022-07-26T16:04:57.978Z,24.99
2022-07-26T16:07:52.959Z,24.78
2022-07-26T16:10:46.961Z,24.76
2022-07-26T16:13:41.070Z,24.72
2022-07-26T16:16:28.963Z,24.74
2022-07-26T16:19:23.001Z,24.99
2022-07-26T16:22:16.996Z,25.22
2022-07-26T16:25:05.958Z,25.23
2022-07-26T16:28:00.006Z,25.37
2022-07-26T16:30:47.217Z,25.21
2022-07-26T16:33:45.960Z,25.24
2022-07-26T16:36:33.635Z,25.25
2022-07-26T16:39:26.981Z,25.53
2022-07-26T16:42:21.134Z,25.62
2022-07-26T16:45:21.055Z,25.78
2022-07-26T16:48:14.260Z,26.01
2022-07-26T16:51:08.059Z,26.14
2022-07-26T16:53:58.884Z,25.64
2022-07-26T16:56:52.965Z,25.62
2022-07-26T16:59:47.066Z,25.46
2022-07-26T17:02:41.079Z,25.15
2022-07-26T17:07:22.105Z,24.99
2022-07-26T17:09:41.466Z,24.79
2022-07-26T17:12:14.856Z,24.69
2022-07-26T17:14:48.709Z,24.62
2022-07-26T17:17:15.490Z,24.24
2022-07-26T17:19:42.200Z,24.30
2022-07-26T17:22:15.743Z,24.26
2022-07-26T17:24:48.695Z,24.28
2022-07-26T17:27:16.572Z,24.30
2022-07-26T17:29:49.734Z,24.18
2022-07-26T17:32:16.546Z,24.07
2022-07-26T17:34:49.743Z,24.12
2022-07-26T17:37:16.737Z,24.04
2022-07-26T17:39:54.761Z,23.90
2022-07-26T17:42:24.321Z,23.87
2022-07-26T17:44:57.726Z,23.88
2022-07-26T17:47:29.384Z,23.88
2022-07-26T17:52:55.598Z,23.91
2022-07-26T17:55:29.730Z,23.91
2022-07-26T17:57:56.458Z,23.88
2022-07-26T18:00:30.726Z,23.92
2022-07-26T18:02:57.989Z,23.90
2022-07-26T18:05:41.224Z,23.83
2022-07-26T18:08:14.806Z,23.81
2022-07-26T18:10:51.016Z,23.75
2022-07-26T18:13:18.247Z,23.69
2022-07-26T18:15:51.739Z,23.66
2022-07-26T18:18:25.693Z,23.64
2022-07-26T18:20:59.709Z,23.62
2022-07-26T18:23:26.748Z,23.48
2022-07-26T18:26:00.696Z,23.53
2022-07-26T18:28:27.358Z,23.45
2022-07-26T18:31:00.765Z,23.41
2022-07-26T18:33:34.709Z,23.21
2022-07-26T18:36:01.646Z,23.19
2022-07-26T18:38:34.715Z,23.13
2022-07-26T18:41:01.401Z,23.06
2022-07-26T18:43:35.728Z,23.00
2022-07-26T18:46:08.722Z,22.94
2022-07-26T18:48:35.698Z,22.84
2022-07-26T18:51:09.675Z,22.84
2022-07-26T18:53:44.713Z,22.78
2022-07-26T18:56:11.423Z,22.70
2022-07-26T18:58:44.708Z,22.68
2022-07-26T19:01:11.785Z,22.66
2022-07-26T19:03:45.766Z,22.63
2022-07-26T19:06:32.797Z,22.59
2022-07-26T19:09:06.705Z,22.61
2022-07-26T19:11:39.739Z,22.57
2022-07-26T19:14:12.704Z,22.54
2022-07-26T19:16:46.695Z,22.48
2022-07-26T19:19:13.760Z,22.44
2022-07-26T19:21:51.687Z,22.43
2022-07-26T19:24:20.045Z,22.42
2022-07-26T19:26:55.745Z,22.48
2022-07-26T19:29:22.961Z,22.47
2022-07-26T19:31:57.092Z,22.43
2022-07-26T19:34:30.896Z,22.39
2022-07-26T19:37:03.691Z,22.51
2022-07-26T19:39:36.698Z,22.42
2022-07-26T19:42:09.756Z,22.52
2022-07-26T19:44:36.497Z,22.58
2022-07-26T19:47:10.105Z,22.61
2022-07-26T19:49:36.860Z,22.65
2022-07-26T19:52:11.849Z,22.66
2022-07-26T19:54:38.982Z,22.65
2022-07-26T19:57:13.904Z,22.66
2022-07-26T19:59:40.628Z,22.56
2022-07-26T20:02:14.950Z,22.66
2022-07-26T20:05:01.681Z,22.58
2022-07-26T20:07:28.713Z,22.44
2022-07-26T20:10:02.128Z,22.46
2022-07-26T20:12:29.047Z,22.37
2022-07-26T20:15:02.661Z,22.35
2022-07-26T20:17:41.674Z,22.29
2022-07-26T20:20:15.690Z,22.37
2022-07-26T20:22:42.374Z,22.50
2022-07-26T20:25:21.373Z,22.45
2022-07-26T20:27:51.374Z,22.44
2022-07-26T20:30:24.890Z,22.45
2022-07-26T20:32:51.656Z,22.47
2022-07-26T20:35:24.686Z,22.41
2022-07-26T20:37:51.419Z,22.40
2022-07-26T20:40:24.682Z,22.29
2022-07-26T20:42:51.624Z,22.29
2022-07-26T20:45:24.673Z,22.32
2022-07-26T20:47:55.062Z,22.34
2022-07-26T20:50:29.826Z,22.42
2022-07-26T20:52:56.677Z,22.28
2022-07-26T20:55:24.236Z,22.32
2022-07-26T20:57:57.701Z,22.37
2022-07-26T21:00:26.189Z,22.35
2022-07-26T21:03:04.876Z,22.34
2022-07-26T21:05:38.547Z,22.33
2022-07-26T21:08:11.755Z,22.31
2022-07-26T21:10:45.744Z,22.31
2022-07-26T21:13:12.431Z,22.31
2022-07-26T21:15:45.771Z,22.29
2022-07-26T21:18:12.475Z,22.28
2022-07-26T21:20:46.658Z,22.37
2022-07-26T21:23:17.809Z,22.07
2022-07-26T21:25:57.922Z,22.00
2022-07-26T21:28:27.212Z,21.87
2022-07-26T21:31:00.796Z,21.86
2022-07-26T21:33:34.693Z,21.79
2022-07-26T21:36:07.665Z,21.80
2022-07-26T21:38:40.921Z,21.79
2022-07-26T21:41:07.797Z,21.71
2022-07-26T21:43:41.673Z,21.71
2022-07-26T21:46:12.646Z,21.70
2022-07-26T21:48:46.890Z,21.68
2022-07-26T21:51:13.687Z,21.63
2022-07-26T21:53:46.715Z,21.66
2022-07-26T21:56:13.674Z,21.61
2022-07-26T21:58:40.492Z,21.73
2022-07-26T22:01:18.746Z,21.83
2022-07-26T22:03:45.591Z,21.89
2022-07-26T22:06:25.720Z,21.94
2022-07-26T22:08:52.531Z,22.04
2022-07-26T22:11:19.508Z,22.05
2022-07-26T22:13:53.842Z,21.95
2022-07-26T22:16:21.165Z,21.90
2022-07-26T22:18:54.635Z,21.88
2022-07-26T22:21:21.592Z,21.89
2022-07-26T22:23:54.664Z,21.90
2022-07-26T22:26:26.204Z,21.87
2022-07-26T22:28:59.666Z,21.82
2022-07-26T22:31:26.621Z,21.81
2022-07-26T22:33:59.839Z,21.89
2022-07-26T22:36:32.651Z,21.84
2022-07-26T22:38:59.424Z,21.87
2022-07-26T22:41:26.265Z,21.89
2022-07-26T22:44:05.654Z,21.87
2022-07-26T22:46:38.884Z,21.85
2022-07-26T22:49:05.722Z,21.81
2022-07-26T22:51:45.855Z,21.78
2022-07-26T22:54:12.769Z,21.77
2022-07-26T22:56:46.661Z,21.72
2022-07-26T22:59:13.762Z,21.68
2022-07-26T23:01:47.712Z,21.60
2022-07-26T23:04:14.908Z,21.66
2022-07-26T23:06:55.655Z,21.55
2022-07-26T23:09:25.581Z,21.43
2022-07-26T23:11:58.661Z,21.36
2022-07-26T23:14:25.432Z,21.15
2022-07-26T23:16:59.865Z,21.01
2022-07-26T23:19:26.748Z,21.02
2022-07-26T23:21:59.642Z,21.03
2022-07-26T23:24:26.637Z,21.09
2022-07-26T23:26:59.667Z,21.14
2022-07-26T23:29:26.404Z,21.17
2022-07-26T23:31:53.374Z,21.12
2022-07-26T23:34:26.652Z,21.13
2022-07-26T23:36:53.397Z,21.12
2022-07-26T23:39:26.658Z,21.05
2022-07-26T23:41:59.682Z,21.04
2022-07-26T23:44:32.651Z,20.97
2022-07-26T23:47:06.687Z,20.95
2022-07-26T23:49:33.706Z,20.91
2022-07-26T23:52:06.673Z,20.89
2022-07-26T23:54:39.717Z,20.86
2022-07-26T23:57:12.828Z,20.86
2022-07-26T23:59:39.515Z,20.86
